createdAt,value
2022-09-15T00:00:06.283Z,56.40
2022-09-15T00:01:06.283Z,60.59
2022-09-15T00:02:06.346Z,60.42
2022-09-15T00:03:06.339Z,58.33
2022-09-15T00:04:06.248Z,58.01
2022-09-15T00:05:06.249Z,58.81
2022-09-15T00:06:06.237Z,59.78
2022-09-15T00:07:06.257Z,57.20
2022-09-15T00:08:06.224Z,57.69
2022-09-15T00:09:06.224Z,59.94
2022-09-15T00:10:06.217Z,58.49
2022-09-15T00:11:06.261Z,59.30
2022-09-15T00:12:06.191Z,55.75
2022-09-15T00:13:06.183Z,57.20
2022-09-15T00:14:06.183Z,60.91
2022-09-15T00:15:06.170Z,60.75
2022-09-15T00:16:06.164Z,57.85
2022-09-15T00:17:06.203Z,58.65
2022-09-15T00:18:06.144Z,59.14
2022-09-15T00:19:06.134Z,58.49
2022-09-15T00:20:06.126Z,58.65
2022-09-15T00:21:06.126Z,61.39
2022-09-15T00:22:06.117Z,61.23
2022-09-15T00:23:06.140Z,60.42
2022-09-15T00:24:06.095Z,57.52
2022-09-15T00:25:06.091Z,59.62
2022-09-15T00:26:06.088Z,59.94
2022-09-15T00:27:06.078Z,60.10
2022-09-15T00:28:06.061Z,62.36
2022-09-15T00:29:06.144Z,61.07
2022-09-15T00:30:06.072Z,58.49
2022-09-15T00:31:06.114Z,58.97
2022-09-15T00:32:06.035Z,58.17
2022-09-15T00:33:06.030Z,58.33
2022-09-15T00:34:06.011Z,58.65
2022-09-15T00:35:06.003Z,59.78
2022-09-15T00:36:06.015Z,61.39
2022-09-15T00:37:05.996Z,63.81
2022-09-15T00:38:05.990Z,60.10
2022-09-15T00:39:05.994Z,61.07
2022-09-15T00:40:06.019Z,58.81
2022-09-15T00:41:05.981Z,58.65
2022-09-15T00:42:05.962Z,58.97
2022-09-15T00:43:05.943Z,60.59
2022-09-15T00:44:05.937Z,60.26
2022-09-15T00:45:05.932Z,62.68
2022-09-15T00:46:06.021Z,62.20
2022-09-15T00:47:18.863Z,59.94
2022-09-15T00:48:06.897Z,61.07
2022-09-15T00:49:05.896Z,61.07
2022-09-15T00:50:05.888Z,59.62
2022-09-15T00:51:05.887Z,60.91
2022-09-15T00:52:05.868Z,57.69
2022-09-15T00:53:05.878Z,57.04
2022-09-15T00:54:05.880Z,58.17
2022-09-15T00:55:05.849Z,58.81
2022-09-15T00:56:05.838Z,59.46
2022-09-15T00:57:05.828Z,58.33
2022-09-15T00:58:05.825Z,63.81
2022-09-15T00:59:05.817Z,61.39
2022-09-15T01:00:05.830Z,60.59
2022-09-15T01:01:05.849Z,58.33
2022-09-15T01:02:05.834Z,60.42
2022-09-15T01:03:05.799Z,58.49
2022-09-15T01:04:05.771Z,60.42
2022-09-15T01:05:05.764Z,62.04
2022-09-15T01:06:05.766Z,63.16
2022-09-15T01:07:05.777Z,60.10
2022-09-15T01:08:05.748Z,62.20
2022-09-15T01:09:05.732Z,62.20
2022-09-15T01:10:05.743Z,63.97
2022-09-15T01:11:05.716Z,62.52
2022-09-15T01:12:05.716Z,63.00
2022-09-15T01:13:05.726Z,63.65
2022-09-15T01:14:05.735Z,60.10
2022-09-15T01:15:05.703Z,62.84
2022-09-15T01:16:05.733Z,61.71
2022-09-15T01:17:05.779Z,59.94
2022-09-15T01:18:05.658Z,62.04
2022-09-15T01:19:05.645Z,58.49
2022-09-15T01:20:05.657Z,60.42
2022-09-15T01:21:05.629Z,60.10
2022-09-15T01:22:05.644Z,58.33
2022-09-15T01:23:05.616Z,58.81
2022-09-15T01:24:05.613Z,56.24
2022-09-15T01:25:05.597Z,58.81
2022-09-15T01:26:05.590Z,61.23
2022-09-15T01:27:18.726Z,62.84
2022-09-15T01:28:06.568Z,60.10
2022-09-15T01:29:05.564Z,59.94
2022-09-15T01:30:05.559Z,60.59
2022-09-15T01:31:05.551Z,61.39
2022-09-15T01:32:05.632Z,62.36
2022-09-15T01:33:05.540Z,64.13
2022-09-15T01:34:05.526Z,60.75
2022-09-15T01:35:05.512Z,61.07
2022-09-15T01:36:05.508Z,63.16
2022-09-15T01:37:05.506Z,60.75
2022-09-15T01:38:05.507Z,63.97
2022-09-15T01:39:05.483Z,61.07
2022-09-15T01:40:05.522Z,60.75
2022-09-15T01:41:05.479Z,59.30
2022-09-15T01:42:05.479Z,60.26
2022-09-15T01:43:05.460Z,60.91
2022-09-15T01:44:05.456Z,60.26
2022-09-15T01:45:05.447Z,58.81
2022-09-15T01:46:05.500Z,58.49
2022-09-15T01:47:05.439Z,60.42
2022-09-15T01:48:05.411Z,64.13
2022-09-15T01:49:05.405Z,64.61
2022-09-15T01:50:05.410Z,61.39
2022-09-15T01:51:05.390Z,60.10
2022-09-15T01:52:05.401Z,59.30
2022-09-15T01:53:05.396Z,60.42
2022-09-15T01:54:05.372Z,60.75
2022-09-15T01:55:05.351Z,62.20
2022-09-15T01:56:05.343Z,61.07
2022-09-15T01:57:05.341Z,58.81
2022-09-15T01:58:05.343Z,62.36
2022-09-15T01:59:05.320Z,60.42
2022-09-15T02:00:05.315Z,61.71
2022-09-15T02:01:05.330Z,63.00
2022-09-15T02:02:05.341Z,59.62
2022-09-15T02:03:05.305Z,58.97
2022-09-15T02:04:05.287Z,62.68
2022-09-15T02:05:05.281Z,63.65
2022-09-15T02:06:05.255Z,63.33
2022-09-15T02:07:05.257Z,59.46
2022-09-15T02:08:05.266Z,60.75
2022-09-15T02:09:05.258Z,62.04
2022-09-15T02:10:05.232Z,61.87
2022-09-15T02:11:05.219Z,64.29
2022-09-15T02:12:05.205Z,62.20
2022-09-15T02:13:05.209Z,62.04
2022-09-15T02:14:05.186Z,61.71
2022-09-15T02:15:05.206Z,60.10
2022-09-15T02:16:05.265Z,62.20
2022-09-15T02:17:05.183Z,62.68
2022-09-15T02:18:05.155Z,61.87
2022-09-15T02:19:05.178Z,61.71
2022-09-15T02:20:05.145Z,59.46
2022-09-15T02:21:05.158Z,61.71
2022-09-15T02:22:05.129Z,61.23
2022-09-15T02:23:05.113Z,61.23
2022-09-15T02:24:05.102Z,59.30
2022-09-15T02:25:05.099Z,60.42
2022-09-15T02:26:05.097Z,61.87
2022-09-15T02:27:05.106Z,62.52
2022-09-15T02:28:05.078Z,62.84
2022-09-15T02:29:05.064Z,61.39
2022-09-15T02:30:05.056Z,63.00
2022-09-15T02:31:05.186Z,60.10
2022-09-15T02:32:07.275Z,63.49
2022-09-15T02:33:05.031Z,63.81
2022-09-15T02:34:05.034Z,61.23
2022-09-15T02:35:05.021Z,60.42
2022-09-15T02:36:05.015Z,63.33
2022-09-15T02:37:05.061Z,60.10
2022-09-15T02:38:04.990Z,60.91
2022-09-15T02:39:04.983Z,60.75
2022-09-15T02:40:05.083Z,62.84
2022-09-15T02:41:04.981Z,60.59
2022-09-15T02:42:04.955Z,63.49
2022-09-15T02:43:04.965Z,63.81
2022-09-15T02:44:04.945Z,62.36
2022-09-15T02:45:04.946Z,60.75
2022-09-15T02:46:04.997Z,62.68
2022-09-15T02:47:04.920Z,62.68
2022-09-15T02:48:04.907Z,60.26
2022-09-15T02:49:04.900Z,62.20
2022-09-15T02:50:04.891Z,61.71
2022-09-15T02:51:04.904Z,64.45
2022-09-15T02:52:04.872Z,64.29
2022-09-15T02:53:04.882Z,63.00
2022-09-15T02:54:04.854Z,62.68
2022-09-15T02:55:04.844Z,63.81
2022-09-15T02:56:04.871Z,64.13
2022-09-15T02:57:04.833Z,64.78
2022-09-15T02:58:04.813Z,63.81
2022-09-15T02:59:04.837Z,63.49
2022-09-15T03:00:04.815Z,65.10
2022-09-15T03:01:04.880Z,60.10
2022-09-15T03:02:04.832Z,63.33
2022-09-15T03:03:04.777Z,64.78
2022-09-15T03:04:04.774Z,63.49
2022-09-15T03:05:04.787Z,63.16
2022-09-15T03:06:04.749Z,61.87
2022-09-15T03:07:04.748Z,64.45
2022-09-15T03:08:04.730Z,64.29
2022-09-15T03:09:04.755Z,63.16
2022-09-15T03:10:04.727Z,64.78
2022-09-15T03:11:04.717Z,64.13
2022-09-15T03:12:04.707Z,64.94
2022-09-15T03:13:04.702Z,63.33
2022-09-15T03:14:04.687Z,63.97
2022-09-15T03:15:04.701Z,64.94
2022-09-15T03:16:04.718Z,64.13
2022-09-15T03:17:04.665Z,63.33
2022-09-15T03:18:04.654Z,64.94
2022-09-15T03:19:04.663Z,63.81
2022-09-15T03:20:04.664Z,64.61
2022-09-15T03:21:04.639Z,63.97
2022-09-15T03:22:04.623Z,63.33
2022-09-15T03:23:04.612Z,64.45
2022-09-15T03:24:04.612Z,65.10
2022-09-15T03:25:04.623Z,64.13
2022-09-15T03:26:04.610Z,64.13
2022-09-15T03:27:04.587Z,64.45
2022-09-15T03:28:04.573Z,65.26
2022-09-15T03:29:04.591Z,64.13
2022-09-15T03:30:04.561Z,63.65
2022-09-15T03:31:04.588Z,65.42
2022-09-15T03:32:04.535Z,64.13
2022-09-15T03:33:04.529Z,64.45
2022-09-15T03:34:04.519Z,66.06
2022-09-15T03:35:04.538Z,66.71
2022-09-15T03:36:04.511Z,64.78
2022-09-15T03:37:04.522Z,65.10
2022-09-15T03:38:04.491Z,64.94
2022-09-15T03:39:04.504Z,63.81
2022-09-15T03:40:04.543Z,62.36
2022-09-15T03:41:04.473Z,65.10
2022-09-15T03:42:04.483Z,63.97
2022-09-15T03:43:04.450Z,64.94
2022-09-15T03:44:04.442Z,64.78
2022-09-15T03:45:04.442Z,64.94
2022-09-15T03:46:04.491Z,63.97
2022-09-15T03:47:04.416Z,64.29
2022-09-15T03:48:04.407Z,66.39
2022-09-15T03:49:04.415Z,65.42
2022-09-15T03:50:04.423Z,65.10
2022-09-15T03:51:04.383Z,64.61
2022-09-15T03:52:04.373Z,65.26
2022-09-15T03:53:04.363Z,62.20
2022-09-15T03:54:04.353Z,64.45
2022-09-15T03:55:04.366Z,64.61
2022-09-15T03:56:04.337Z,65.58
2022-09-15T03:57:04.350Z,64.61
2022-09-15T03:58:04.321Z,64.45
2022-09-15T03:59:04.340Z,64.29
2022-09-15T04:00:04.300Z,63.81
2022-09-15T04:01:04.415Z,64.13
2022-09-15T04:02:04.330Z,64.13
2022-09-15T04:03:04.277Z,64.45
2022-09-15T04:04:04.265Z,64.61
2022-09-15T04:05:04.286Z,64.13
2022-09-15T04:06:04.255Z,64.13
2022-09-15T04:07:04.244Z,64.61
2022-09-15T04:08:04.238Z,65.26
2022-09-15T04:09:04.229Z,64.94
2022-09-15T04:10:04.227Z,64.61
2022-09-15T04:11:04.230Z,66.06
2022-09-15T04:12:04.198Z,65.10
2022-09-15T04:13:04.224Z,64.45
2022-09-15T04:14:04.189Z,65.74
2022-09-15T04:15:04.180Z,64.78
2022-09-15T04:16:04.211Z,64.61
2022-09-15T04:17:04.160Z,65.42
2022-09-15T04:18:04.139Z,64.94
2022-09-15T04:19:04.166Z,64.13
2022-09-15T04:20:04.136Z,66.06
2022-09-15T04:21:04.122Z,63.65
2022-09-15T04:22:04.119Z,64.61
2022-09-15T04:23:04.105Z,65.58
2022-09-15T04:24:04.089Z,65.58
2022-09-15T04:25:04.112Z,62.84
2022-09-15T04:26:04.078Z,64.13
2022-09-15T04:27:04.106Z,64.45
2022-09-15T04:28:04.054Z,65.58
2022-09-15T04:29:04.925Z,65.26
2022-09-15T04:30:04.043Z,65.10
2022-09-15T04:31:04.083Z,64.61
2022-09-15T04:32:04.029Z,64.94
2022-09-15T04:33:04.053Z,64.94
2022-09-15T04:34:04.006Z,65.74
2022-09-15T04:35:04.016Z,64.78
2022-09-15T04:36:03.985Z,65.10
2022-09-15T04:37:03.992Z,66.23
2022-09-15T04:38:03.971Z,65.26
2022-09-15T04:39:03.992Z,65.26
2022-09-15T04:40:04.021Z,65.10
2022-09-15T04:41:03.967Z,65.42
2022-09-15T04:42:03.954Z,66.06
2022-09-15T04:43:03.940Z,65.26
2022-09-15T04:44:03.926Z,64.94
2022-09-15T04:45:03.933Z,65.74
2022-09-15T04:46:03.915Z,66.39
2022-09-15T04:47:03.978Z,63.97
2022-09-15T04:48:03.901Z,66.06
2022-09-15T04:49:03.910Z,66.06
2022-09-15T04:50:03.875Z,64.13
2022-09-15T04:51:03.872Z,66.39
2022-09-15T04:52:07.732Z,66.55
2022-09-15T04:53:04.857Z,65.90
2022-09-15T04:54:03.843Z,65.74
2022-09-15T04:55:03.860Z,64.29
2022-09-15T04:56:03.830Z,64.94
2022-09-15T04:57:03.849Z,65.42
2022-09-15T04:58:03.818Z,65.58
2022-09-15T04:59:04.393Z,64.45
2022-09-15T05:00:03.794Z,64.29
2022-09-15T05:01:03.835Z,64.29
2022-09-15T05:02:03.823Z,65.42
2022-09-15T05:03:03.774Z,65.26
2022-09-15T05:04:03.767Z,65.42
2022-09-15T05:05:03.746Z,65.42
2022-09-15T05:06:03.756Z,66.39
2022-09-15T05:07:03.766Z,66.06
2022-09-15T05:08:03.713Z,64.29
2022-09-15T05:09:09.034Z,68.00
2022-09-15T05:10:03.710Z,64.29
2022-09-15T05:11:03.720Z,64.13
2022-09-15T05:12:03.682Z,66.06
2022-09-15T05:13:03.701Z,65.90
2022-09-15T05:14:03.671Z,68.32
2022-09-15T05:15:03.664Z,65.10
2022-09-15T05:16:03.692Z,65.42
2022-09-15T05:17:03.654Z,64.29
2022-09-15T05:18:03.645Z,64.61
2022-09-15T05:19:03.651Z,65.58
2022-09-15T05:20:03.619Z,65.42
2022-09-15T05:21:03.612Z,65.26
2022-09-15T05:22:03.608Z,66.39
2022-09-15T05:23:03.596Z,66.55
2022-09-15T05:24:03.603Z,65.42
2022-09-15T05:25:03.603Z,66.39
2022-09-15T05:26:03.575Z,67.19
2022-09-15T05:27:03.556Z,68.48
2022-09-15T05:28:03.550Z,65.90
2022-09-15T05:29:03.547Z,63.97
2022-09-15T05:30:31.776Z,65.58
2022-09-15T05:31:04.627Z,67.68
2022-09-15T05:32:03.523Z,65.74
2022-09-15T05:33:03.512Z,65.26
2022-09-15T05:34:03.524Z,65.90
2022-09-15T05:35:03.513Z,66.06
2022-09-15T05:36:03.507Z,64.45
2022-09-15T05:37:03.497Z,65.58
2022-09-15T05:38:03.465Z,65.42
2022-09-15T05:39:03.460Z,66.06
2022-09-15T05:40:08.292Z,65.90
2022-09-15T05:43:30.113Z,67.19
2022-09-15T05:44:30.108Z,65.42
2022-09-15T05:45:30.086Z,65.10
2022-09-15T05:46:30.144Z,66.87
2022-09-15T05:47:30.073Z,66.06
2022-09-15T05:48:30.063Z,65.58
2022-09-15T05:49:30.043Z,66.23
2022-09-15T05:50:30.037Z,67.03
2022-09-15T05:51:30.053Z,67.03
2022-09-15T05:52:30.045Z,65.90
2022-09-15T05:53:30.023Z,66.23
2022-09-15T05:54:30.031Z,64.13
2022-09-15T05:55:29.997Z,64.13
2022-09-15T05:56:29.985Z,64.13
2022-09-15T05:57:29.997Z,64.13
2022-09-15T05:58:29.969Z,64.94
2022-09-15T05:59:29.957Z,66.71
2022-09-15T06:00:29.948Z,66.71
2022-09-15T06:01:30.035Z,66.23
2022-09-15T06:02:29.959Z,69.93
2022-09-15T06:03:31.079Z,65.74
2022-09-15T06:04:29.923Z,64.78
2022-09-15T06:05:29.905Z,64.78
2022-09-15T06:06:29.900Z,64.78
2022-09-15T06:07:29.884Z,67.68
2022-09-15T06:08:29.878Z,64.94
2022-09-15T06:09:29.884Z,67.03
2022-09-15T06:10:29.860Z,65.26
2022-09-15T06:11:29.859Z,63.81
2022-09-15T06:12:29.857Z,64.29
2022-09-15T06:13:29.836Z,65.26
2022-09-15T06:14:29.826Z,64.61
2022-09-15T06:15:29.839Z,63.97
2022-09-15T06:16:29.856Z,64.13
2022-09-15T06:17:29.803Z,64.45
2022-09-15T06:18:29.793Z,64.29
2022-09-15T06:19:29.789Z,64.13
2022-09-15T06:20:29.777Z,65.74
2022-09-15T06:21:29.795Z,64.13
2022-09-15T06:22:29.756Z,63.33
2022-09-15T06:23:29.759Z,64.13
2022-09-15T06:24:29.748Z,65.74
2022-09-15T06:25:29.733Z,64.45
2022-09-15T06:26:29.726Z,64.78
2022-09-15T06:27:29.730Z,64.13
2022-09-15T06:28:29.706Z,63.81
2022-09-15T06:29:29.701Z,64.13
2022-09-15T06:30:29.693Z,65.10
2022-09-15T06:31:29.737Z,64.29
2022-09-15T06:32:29.702Z,64.94
2022-09-15T06:33:29.669Z,65.26
2022-09-15T06:34:29.665Z,65.58
2022-09-15T06:35:29.658Z,65.26
2022-09-15T06:36:29.643Z,65.10
2022-09-15T06:37:29.642Z,64.45
2022-09-15T06:38:29.640Z,65.42
2022-09-15T06:39:29.620Z,64.13
2022-09-15T06:40:29.664Z,61.87
2022-09-15T06:41:38.456Z,61.87
2022-09-15T06:42:30.687Z,63.00
2022-09-15T06:43:29.610Z,62.68
2022-09-15T06:44:29.605Z,63.81
2022-09-15T06:45:29.573Z,64.94
2022-09-15T06:46:29.624Z,63.00
2022-09-15T06:47:29.559Z,61.55
2022-09-15T06:48:29.546Z,62.04
2022-09-15T06:49:29.540Z,59.62
2022-09-15T06:50:29.545Z,60.75
2022-09-15T06:51:29.520Z,61.39
2022-09-15T06:52:29.571Z,60.75
2022-09-15T06:53:29.512Z,61.71
2022-09-15T06:54:29.490Z,62.68
2022-09-15T06:55:29.510Z,63.97
2022-09-15T06:56:29.486Z,63.65
2022-09-15T06:57:29.480Z,62.68
2022-09-15T06:58:29.467Z,63.33
2022-09-15T06:59:29.468Z,63.16
2022-09-15T07:00:29.462Z,64.45
2022-09-15T07:01:29.467Z,63.00
2022-09-15T07:02:29.565Z,64.29
2022-09-15T07:03:29.571Z,65.26
2022-09-15T07:04:29.422Z,63.81
2022-09-15T07:05:29.433Z,61.55
2022-09-15T07:06:29.403Z,62.04
2022-09-15T07:07:29.401Z,60.75
2022-09-15T07:08:29.392Z,62.36
2022-09-15T07:09:29.381Z,63.65
2022-09-15T07:10:29.389Z,61.39
2022-09-15T07:11:29.373Z,64.29
2022-09-15T07:12:29.373Z,63.00
2022-09-15T07:13:29.352Z,64.29
2022-09-15T07:14:29.344Z,64.45
2022-09-15T07:15:29.346Z,64.45
2022-09-15T07:16:29.483Z,64.29
2022-09-15T07:17:29.318Z,61.39
2022-09-15T07:18:29.301Z,60.59
2022-09-15T07:19:29.302Z,63.97
2022-09-15T07:20:29.283Z,61.87
2022-09-15T07:21:29.286Z,64.13
2022-09-15T07:22:29.298Z,62.04
2022-09-15T07:23:29.260Z,61.07
2022-09-15T07:24:29.252Z,61.39
2022-09-15T07:25:29.251Z,63.65
2022-09-15T07:26:29.246Z,63.81
2022-09-15T07:27:29.251Z,63.81
2022-09-15T07:28:29.225Z,63.16
2022-09-15T07:29:29.217Z,63.97
2022-09-15T07:30:29.206Z,65.74
2022-09-15T07:31:29.249Z,64.29
2022-09-15T07:32:29.192Z,63.49
2022-09-15T07:33:29.195Z,64.78
2022-09-15T07:34:29.193Z,63.00
2022-09-15T07:35:29.193Z,63.65
2022-09-15T07:36:29.164Z,65.58
2022-09-15T07:37:29.160Z,63.65
2022-09-15T07:38:29.149Z,62.68
2022-09-15T07:39:29.151Z,65.26
2022-09-15T07:40:29.263Z,63.81
2022-09-15T07:41:29.128Z,63.16
2022-09-15T07:42:32.162Z,63.97
2022-09-15T07:43:29.124Z,63.97
2022-09-15T07:44:29.116Z,60.10
2022-09-15T07:45:29.132Z,63.16
2022-09-15T07:46:29.086Z,64.78
2022-09-15T07:47:29.077Z,61.39
2022-09-15T07:48:29.077Z,63.16
2022-09-15T07:49:29.061Z,63.33
2022-09-15T07:50:29.060Z,64.13
2022-09-15T07:51:29.070Z,63.49
2022-09-15T07:52:29.084Z,63.49
2022-09-15T07:53:29.031Z,63.49
2022-09-15T07:54:29.015Z,63.81
2022-09-15T07:55:29.032Z,61.71
2022-09-15T07:56:29.006Z,60.10
2022-09-15T07:57:28.993Z,63.16
2022-09-15T07:58:28.993Z,60.91
2022-09-15T07:59:28.981Z,61.07
2022-09-15T08:00:29.036Z,63.97
2022-09-15T08:01:29.033Z,61.23
2022-09-15T08:02:28.953Z,62.20
2022-09-15T08:03:28.944Z,60.26
2022-09-15T08:04:28.933Z,62.36
2022-09-15T08:05:28.934Z,63.49
2022-09-15T08:06:28.922Z,62.68
2022-09-15T08:07:28.933Z,62.84
2022-09-15T08:08:28.923Z,60.75
2022-09-15T08:09:28.897Z,59.46
2022-09-15T08:10:28.887Z,60.75
2022-09-15T08:11:28.886Z,62.52
2022-09-15T08:12:28.939Z,63.33
2022-09-15T08:13:28.854Z,63.00
2022-09-15T08:14:28.856Z,61.71
2022-09-15T08:15:28.835Z,63.00
2022-09-15T08:16:28.904Z,60.75
2022-09-15T08:17:28.823Z,62.20
2022-09-15T08:18:28.836Z,64.13
2022-09-15T08:19:28.811Z,62.68
2022-09-15T08:20:28.805Z,60.75
2022-09-15T08:21:28.813Z,62.20
2022-09-15T08:22:28.850Z,59.78
2022-09-15T08:23:28.777Z,61.55
2022-09-15T08:24:28.773Z,60.26
2022-09-15T08:25:28.782Z,63.65
2022-09-15T08:26:28.777Z,62.36
2022-09-15T08:27:28.762Z,60.91
2022-09-15T08:28:28.750Z,60.10
2022-09-15T08:29:28.917Z,60.10
2022-09-15T08:30:28.778Z,61.39
2022-09-15T08:31:28.789Z,62.20
2022-09-15T08:32:28.765Z,61.23
2022-09-15T08:33:28.706Z,62.84
2022-09-15T08:34:28.710Z,63.00
2022-09-15T08:35:28.704Z,63.00
2022-09-15T08:36:28.695Z,61.07
2022-09-15T08:37:28.669Z,63.33
2022-09-15T08:38:28.666Z,63.49
2022-09-15T08:39:28.659Z,63.33
2022-09-15T08:40:28.692Z,63.97
2022-09-15T08:41:28.644Z,63.33
2022-09-15T08:42:28.639Z,63.33
2022-09-15T08:43:28.619Z,62.84
2022-09-15T08:44:28.636Z,64.78
2022-09-15T08:45:28.611Z,63.81
2022-09-15T08:46:28.639Z,64.13
2022-09-15T08:47:28.592Z,64.78
2022-09-15T08:48:28.594Z,64.61
2022-09-15T08:49:50.145Z,61.55
2022-09-15T08:50:29.573Z,61.39
2022-09-15T08:51:28.558Z,60.26
2022-09-15T08:52:28.579Z,60.75
2022-09-15T08:53:28.575Z,61.23
2022-09-15T08:54:28.553Z,61.23
2022-09-15T08:55:28.560Z,61.07
2022-09-15T08:56:28.527Z,59.14
2022-09-15T08:57:28.516Z,58.65
2022-09-15T08:58:28.503Z,61.23
2022-09-15T08:59:28.498Z,63.65
2022-09-15T09:00:28.510Z,63.65
2022-09-15T09:01:28.521Z,60.75
2022-09-15T09:02:28.517Z,60.26
2022-09-15T09:03:28.470Z,62.52
2022-09-15T09:04:28.460Z,62.52
2022-09-15T09:05:28.456Z,62.20
2022-09-15T09:06:28.437Z,64.13
2022-09-15T09:07:28.462Z,61.71
2022-09-15T09:08:28.437Z,62.52
2022-09-15T09:09:28.415Z,59.14
2022-09-15T09:10:28.424Z,59.30
2022-09-15T09:11:28.412Z,61.07
2022-09-15T09:12:28.401Z,62.68
2022-09-15T09:13:32.003Z,60.10
2022-09-15T09:14:28.376Z,60.26
2022-09-15T09:15:28.429Z,61.87
2022-09-15T09:16:28.391Z,63.49
2022-09-15T09:17:28.362Z,61.87
2022-09-15T09:18:28.351Z,61.07
2022-09-15T09:19:32.040Z,61.23
2022-09-15T09:20:28.335Z,62.20
2022-09-15T09:21:28.327Z,64.13
2022-09-15T09:22:28.342Z,63.16
2022-09-15T09:23:28.315Z,62.52
2022-09-15T09:24:28.319Z,60.10
2022-09-15T09:25:28.636Z,59.94
2022-09-15T09:26:28.281Z,60.26
2022-09-15T09:27:28.305Z,59.46
2022-09-15T09:28:28.265Z,59.62
2022-09-15T09:29:28.283Z,62.36
2022-09-15T09:30:28.257Z,59.62
2022-09-15T09:31:28.287Z,58.49
2022-09-15T09:32:28.232Z,59.94
2022-09-15T09:33:28.227Z,59.78
2022-09-15T09:34:28.231Z,59.62
2022-09-15T09:35:28.231Z,60.59
2022-09-15T09:36:28.206Z,59.14
2022-09-15T09:37:28.229Z,59.30
2022-09-15T09:38:28.197Z,60.59
2022-09-15T09:39:28.210Z,60.26
2022-09-15T09:40:28.283Z,58.97
2022-09-15T09:41:28.171Z,58.81
2022-09-15T09:42:28.196Z,58.65
2022-09-15T09:43:28.210Z,59.46
2022-09-15T09:44:28.137Z,60.59
2022-09-15T09:45:28.159Z,59.62
2022-09-15T09:46:28.227Z,59.30
2022-09-15T09:47:28.140Z,59.78
2022-09-15T09:48:28.120Z,60.91
2022-09-15T09:49:28.115Z,59.62
2022-09-15T09:50:28.096Z,62.20
2022-09-15T09:51:28.112Z,59.14
2022-09-15T09:52:28.096Z,58.49
2022-09-15T09:53:28.078Z,57.85
2022-09-15T09:54:28.071Z,59.62
2022-09-15T09:55:28.063Z,60.42
2022-09-15T09:56:28.058Z,63.81
2022-09-15T09:57:28.076Z,61.39
2022-09-15T09:58:28.038Z,63.65
2022-09-15T09:59:28.047Z,59.94
2022-09-15T10:00:28.028Z,60.75
2022-09-15T10:01:28.077Z,60.42
2022-09-15T10:02:28.049Z,61.39
2022-09-15T10:03:32.187Z,63.97
2022-09-15T10:04:29.014Z,64.78
2022-09-15T10:05:27.992Z,59.46
2022-09-15T10:06:27.975Z,59.30
2022-09-15T10:07:27.972Z,59.14
2022-09-15T10:08:27.954Z,58.49
2022-09-15T10:09:33.090Z,59.14
2022-09-15T10:10:27.959Z,59.78
2022-09-15T10:11:27.941Z,60.26
2022-09-15T10:12:27.944Z,60.26
2022-09-15T10:13:27.953Z,62.20
2022-09-15T10:14:27.916Z,60.26
2022-09-15T10:15:27.910Z,58.97
2022-09-15T10:16:27.940Z,59.46
2022-09-15T10:17:27.890Z,58.33
2022-09-15T10:18:27.894Z,59.78
2022-09-15T10:19:27.897Z,59.78
2022-09-15T10:20:27.868Z,59.78
2022-09-15T10:21:27.861Z,61.55
2022-09-15T10:22:27.861Z,61.23
2022-09-15T10:23:27.850Z,61.39
2022-09-15T10:24:27.843Z,62.20
2022-09-15T10:25:44.242Z,58.65
2022-09-15T10:26:27.822Z,58.65
2022-09-15T10:27:27.809Z,59.46
2022-09-15T10:28:27.809Z,60.59
2022-09-15T10:29:27.806Z,60.26
2022-09-15T10:30:27.813Z,60.26
2022-09-15T10:31:27.865Z,59.78
2022-09-15T10:32:27.788Z,59.62
2022-09-15T10:33:27.794Z,59.94
2022-09-15T10:34:27.753Z,60.91
2022-09-15T10:35:27.778Z,63.00
2022-09-15T10:36:27.785Z,62.68
2022-09-15T10:37:27.738Z,59.78
2022-09-15T10:38:27.725Z,59.30
2022-09-15T10:39:27.720Z,60.26
2022-09-15T10:40:27.802Z,60.75
2022-09-15T10:41:27.706Z,62.84
2022-09-15T10:42:27.717Z,59.30
2022-09-15T10:43:27.697Z,60.26
2022-09-15T10:44:27.690Z,60.10
2022-09-15T10:45:27.763Z,61.55
2022-09-15T10:46:27.674Z,59.30
2022-09-15T10:47:27.699Z,60.75
2022-09-15T10:48:27.656Z,60.10
2022-09-15T10:49:27.650Z,60.91
2022-09-15T10:50:27.639Z,61.39
2022-09-15T10:51:27.652Z,63.97
2022-09-15T10:52:27.624Z,60.10
2022-09-15T10:53:27.664Z,60.26
2022-09-15T10:54:27.637Z,60.10
2022-09-15T10:55:48.493Z,61.07
2022-09-15T10:56:27.594Z,59.46
2022-09-15T10:58:27.583Z,62.04
2022-09-15T10:59:27.593Z,59.94
2022-09-15T11:00:27.563Z,59.62
2022-09-15T11:01:27.588Z,59.46
2022-09-15T11:02:27.586Z,60.75
2022-09-15T11:03:27.546Z,60.26
2022-09-15T11:04:27.530Z,59.78
2022-09-15T11:05:27.545Z,60.26
2022-09-15T11:06:27.517Z,63.16
2022-09-15T11:07:27.506Z,62.04
2022-09-15T11:08:27.498Z,60.91
2022-09-15T11:09:27.485Z,64.29
2022-09-15T11:10:27.491Z,60.75
2022-09-15T11:11:27.490Z,63.00
2022-09-15T11:12:29.444Z,61.07
2022-09-15T11:13:27.455Z,60.91
2022-09-15T11:14:27.445Z,62.20
2022-09-15T11:15:27.458Z,61.71
2022-09-15T11:16:27.469Z,65.26
2022-09-15T11:17:27.416Z,59.46
2022-09-15T11:18:27.420Z,59.94
2022-09-15T11:19:27.422Z,60.26
2022-09-15T11:20:27.413Z,59.94
2022-09-15T11:21:27.386Z,61.39
2022-09-15T11:22:27.375Z,60.10
2022-09-15T11:23:27.383Z,60.91
2022-09-15T11:24:27.361Z,61.55
2022-09-15T11:25:27.355Z,59.46
2022-09-15T11:26:27.365Z,61.39
2022-09-15T11:27:27.362Z,60.42
2022-09-15T11:28:27.331Z,59.30
2022-09-15T11:29:27.317Z,64.61
2022-09-15T11:30:27.310Z,62.52
2022-09-15T11:31:27.341Z,62.68
2022-09-15T11:32:27.306Z,63.49
2022-09-15T11:33:27.303Z,64.29
2022-09-15T11:34:27.278Z,63.33
2022-09-15T11:35:27.267Z,60.75
2022-09-15T11:36:27.262Z,60.75
2022-09-15T11:37:27.252Z,60.26
2022-09-15T11:38:27.240Z,63.49
2022-09-15T11:39:27.258Z,61.55
2022-09-15T11:40:27.290Z,60.59
2022-09-15T11:41:27.216Z,59.78
2022-09-15T11:42:27.211Z,61.71
2022-09-15T11:43:27.196Z,62.68
2022-09-15T11:44:27.193Z,62.52
2022-09-15T11:45:27.207Z,60.75
2022-09-15T11:46:27.219Z,60.91
2022-09-15T11:47:27.165Z,64.45
2022-09-15T11:48:27.163Z,60.75
2022-09-15T11:49:27.145Z,58.01
2022-09-15T11:50:27.144Z,59.30
2022-09-15T11:51:27.142Z,66.23
2022-09-15T11:52:27.128Z,59.94
2022-09-15T11:53:27.117Z,62.04
2022-09-15T11:54:29.984Z,61.07
2022-09-15T11:55:27.093Z,61.55
2022-09-15T11:56:27.087Z,63.65
2022-09-15T11:57:27.097Z,60.10
2022-09-15T11:58:27.066Z,63.65
2022-09-15T11:59:27.085Z,61.23
2022-09-15T12:00:27.056Z,59.94
2022-09-15T12:01:27.125Z,59.78
2022-09-15T12:02:27.223Z,61.39
2022-09-15T12:03:27.061Z,59.62
2022-09-15T12:04:27.032Z,62.20
2022-09-15T12:05:27.017Z,61.23
2022-09-15T12:06:27.009Z,62.84
2022-09-15T12:07:27.028Z,60.75
2022-09-15T12:08:27.007Z,61.39
2022-09-15T12:09:27.001Z,61.87
2022-09-15T12:10:27.046Z,62.20
2022-09-15T12:11:26.992Z,61.87
2022-09-15T12:12:30.645Z,60.59
2022-09-15T12:13:26.945Z,61.07
2022-09-15T12:14:26.969Z,60.59
2022-09-15T12:15:26.937Z,60.26
2022-09-15T12:16:26.934Z,61.23
2022-09-15T12:17:26.917Z,64.29
2022-09-15T12:18:38.478Z,60.91
2022-09-15T12:19:27.925Z,59.94
2022-09-15T12:20:26.892Z,65.26
2022-09-15T12:21:26.887Z,59.78
2022-09-15T12:22:26.879Z,58.17
2022-09-15T12:23:26.873Z,59.78
2022-09-15T12:24:26.851Z,61.71
2022-09-15T12:25:26.863Z,61.71
2022-09-15T12:26:26.858Z,60.91
2022-09-15T12:27:26.831Z,60.59
2022-09-15T12:28:26.902Z,58.65
2022-09-15T12:29:26.808Z,60.59
2022-09-15T12:30:26.814Z,60.59
2022-09-15T12:31:26.873Z,60.91
2022-09-15T12:32:26.795Z,60.26
2022-09-15T12:33:26.787Z,59.62
2022-09-15T12:34:26.766Z,60.26
2022-09-15T12:35:26.784Z,59.78
2022-09-15T12:36:26.763Z,61.07
2022-09-15T12:37:26.749Z,60.26
2022-09-15T12:38:26.738Z,59.46
2022-09-15T12:39:26.730Z,60.91
2022-09-15T12:40:26.808Z,60.26
2022-09-15T12:41:26.713Z,59.78
2022-09-15T12:42:26.705Z,59.94
2022-09-15T12:43:26.703Z,61.23
2022-09-15T12:44:26.698Z,61.07
2022-09-15T12:45:26.695Z,61.87
2022-09-15T12:46:26.761Z,58.81
2022-09-15T12:47:26.687Z,59.94
2022-09-15T12:48:26.665Z,59.94
2022-09-15T12:49:26.649Z,60.91
2022-09-15T12:50:26.712Z,60.91
2022-09-15T12:51:26.635Z,59.46
2022-09-15T12:52:26.641Z,60.10
2022-09-15T12:53:26.650Z,60.10
2022-09-15T12:54:26.613Z,59.14
2022-09-15T12:55:26.603Z,58.65